createdAt,value
2023-04-14T00:02:06.466Z,79.29
2023-04-14T00:04:33.181Z,79.41
2023-04-14T00:07:00.091Z,79.60
2023-04-14T00:09:26.580Z,79.59
2023-04-14T00:11:53.023Z,79.81
2023-04-14T00:14:19.446Z,79.88
2023-04-14T00:16:46.802Z,79.87
2023-04-14T00:19:13.210Z,80.13
2023-04-14T00:21:39.710Z,80.26
2023-04-14T00:24:06.175Z,80.31
2023-04-14T00:26:35.195Z,80.37
2023-04-14T00:29:01.722Z,80.49
2023-04-14T00:31:28.413Z,80.63
2023-04-14T00:33:54.933Z,80.72
2023-04-14T00:36:21.426Z,80.75
2023-04-14T00:38:47.801Z,80.77
2023-04-14T00:41:14.188Z,80.90
2023-04-14T00:43:40.691Z,81.18
2023-04-14T00:46:07.207Z,81.14
2023-04-14T00:48:33.966Z,81.39
2023-04-14T00:51:00.518Z,81.13
2023-04-14T00:53:27.429Z,81.32
2023-04-14T00:55:53.912Z,81.42
2023-04-14T00:58:20.457Z,81.44
2023-04-14T01:00:53.786Z,81.45
2023-04-14T01:03:21.052Z,81.66
2023-04-14T01:05:47.842Z,81.80
2023-04-14T01:08:14.472Z,82.01
2023-04-14T01:10:49.323Z,82.29
2023-04-14T01:13:41.711Z,82.11
2023-04-14T01:16:30.422Z,82.26
2023-04-14T01:19:35.728Z,82.22
2023-04-14T01:22:06.265Z,82.43
2023-04-14T01:24:35.357Z,82.40
2023-04-14T01:27:16.320Z,82.44
2023-04-14T01:30:08.964Z,82.50
2023-04-14T01:32:39.890Z,82.97
2023-04-14T01:35:17.433Z,82.87
2023-04-14T01:37:52.739Z,82.86
2023-04-14T01:40:22.669Z,83.13
2023-04-14T01:42:56.039Z,83.02
2023-04-14T01:45:31.309Z,83.08
2023-04-14T01:47:59.384Z,83.23
2023-04-14T01:50:27.389Z,83.36
2023-04-14T01:52:54.758Z,83.36
2023-04-14T01:55:26.413Z,83.33
2023-04-14T01:57:54.603Z,83.61
2023-04-14T02:00:22.578Z,83.45
2023-04-14T02:02:52.229Z,83.67
2023-04-14T02:05:19.714Z,83.40
2023-04-14T02:07:47.940Z,83.61
2023-04-14T02:10:17.680Z,83.63
2023-04-14T02:12:44.787Z,83.76
2023-04-14T02:15:15.906Z,84.00
2023-04-14T02:17:44.304Z,84.15
2023-04-14T02:20:12.890Z,84.30
2023-04-14T02:22:39.371Z,84.43
2023-04-14T02:25:07.159Z,84.30
2023-04-14T02:27:48.466Z,84.67
2023-04-14T02:30:19.121Z,84.56
2023-04-14T02:32:49.457Z,84.63
2023-04-14T02:35:21.940Z,84.72
2023-04-14T02:37:53.830Z,84.58
2023-04-14T02:40:30.441Z,84.75
2023-04-14T02:43:02.800Z,84.97
2023-04-14T02:45:32.604Z,84.81
2023-04-14T02:48:02.933Z,84.94
2023-04-14T02:50:31.387Z,85.02
2023-04-14T02:53:00.167Z,85.18
2023-04-14T02:55:27.399Z,85.17
2023-04-14T02:57:54.835Z,85.40
2023-04-14T03:00:23.657Z,85.36
2023-04-14T03:02:53.126Z,85.37
2023-04-14T03:05:21.060Z,85.44
2023-04-14T03:07:50.752Z,85.49
2023-04-14T03:10:17.919Z,85.46
2023-04-14T03:12:46.796Z,85.68
2023-04-14T03:15:13.290Z,85.79
2023-04-14T03:17:41.130Z,85.56
2023-04-14T03:20:09.179Z,85.64
2023-04-14T03:22:40.677Z,85.58
2023-04-14T03:25:07.439Z,85.72
2023-04-14T03:27:34.254Z,85.72
2023-04-14T03:30:04.312Z,85.91
2023-04-14T03:32:35.760Z,85.72
2023-04-14T03:35:02.927Z,85.85
2023-04-14T03:37:33.486Z,85.84
2023-04-14T03:40:04.380Z,86.05
2023-04-14T03:42:31.599Z,86.04
2023-04-14T03:44:58.583Z,85.91
2023-04-14T03:47:26.947Z,86.03
2023-04-14T03:49:57.586Z,86.18
2023-04-14T03:52:26.529Z,86.15
2023-04-14T03:54:58.939Z,86.19
2023-04-14T03:57:27.554Z,86.36
2023-04-14T03:59:54.393Z,86.26
2023-04-14T04:02:22.770Z,86.37
2023-04-14T04:04:50.070Z,86.46
2023-04-14T04:07:19.617Z,86.27
2023-04-14T04:09:48.591Z,86.49
2023-04-14T04:12:18.346Z,86.65
2023-04-14T04:14:44.900Z,86.70
2023-04-14T04:17:14.629Z,86.72
2023-04-14T04:19:43.418Z,86.67
2023-04-14T04:22:14.360Z,86.75
2023-04-14T04:24:42.473Z,86.80
2023-04-14T04:27:20.304Z,87.10
2023-04-14T04:29:53.719Z,86.89
2023-04-14T04:32:20.958Z,87.11
2023-04-14T04:34:50.406Z,87.40
2023-04-14T04:37:19.321Z,87.40
2023-04-14T04:39:45.830Z,87.54
2023-04-14T04:42:12.334Z,87.68
2023-04-14T04:44:38.828Z,87.80
2023-04-14T04:47:05.759Z,88.04
2023-04-14T04:49:32.198Z,88.21
2023-04-14T04:51:59.731Z,88.38
2023-04-14T04:54:27.093Z,88.35
2023-04-14T04:56:53.840Z,88.51
2023-04-14T04:59:20.249Z,88.54
2023-04-14T05:01:46.742Z,88.54
2023-04-14T05:04:13.278Z,88.46
2023-04-14T05:06:40.026Z,88.38
2023-04-14T05:09:06.965Z,88.37
2023-04-14T05:11:35.171Z,88.34
2023-04-14T05:14:02.792Z,88.21
2023-04-14T05:16:29.889Z,88.28
2023-04-14T05:18:56.448Z,88.18
2023-04-14T05:21:23.763Z,88.12
2023-04-14T05:23:50.347Z,88.05
2023-04-14T05:28:46.621Z,88.02
2023-04-14T05:31:13.081Z,88.09
2023-04-14T05:33:39.941Z,87.93
2023-04-14T05:36:06.862Z,88.17
2023-04-14T05:38:36.397Z,87.99
2023-04-14T05:41:02.789Z,88.25
2023-04-14T05:43:29.211Z,88.25
2023-04-14T05:45:58.196Z,88.22
2023-04-14T05:48:27.569Z,88.36
2023-04-14T05:50:53.964Z,88.22
2023-04-14T05:53:20.632Z,88.31
2023-04-14T05:55:48.698Z,88.41
2023-04-14T05:58:15.109Z,88.55
2023-04-14T06:00:41.555Z,88.68
2023-04-14T06:03:08.381Z,88.92
2023-04-14T06:05:35.330Z,89.04
2023-04-14T06:08:01.744Z,89.12
2023-04-14T06:10:28.198Z,89.33
2023-04-14T06:12:54.553Z,89.41
2023-04-14T06:15:21.051Z,89.61
2023-04-14T06:17:48.348Z,89.73
2023-04-14T06:20:14.773Z,89.61
2023-04-14T06:22:41.281Z,89.62
2023-04-14T06:25:08.149Z,89.50
2023-04-14T06:27:34.574Z,89.38
2023-04-14T06:30:01.292Z,89.35
2023-04-14T06:32:27.733Z,89.20
2023-04-14T06:34:54.120Z,89.15
2023-04-14T06:37:20.480Z,89.20
2023-04-14T06:39:46.909Z,89.22
2023-04-14T06:42:13.443Z,89.27
2023-04-14T06:44:40.451Z,89.45
2023-04-14T06:47:07.088Z,89.67
2023-04-14T06:49:33.557Z,89.75
2023-04-14T06:51:59.902Z,89.63
2023-04-14T06:54:26.330Z,89.22
2023-04-14T06:56:52.735Z,88.97
2023-04-14T06:59:21.127Z,88.47
2023-04-14T07:01:47.998Z,87.10
2023-04-14T07:04:15.467Z,86.79
2023-04-14T07:06:42.081Z,85.21
2023-04-14T07:09:08.519Z,84.28
2023-04-14T07:11:34.968Z,82.97
2023-04-14T07:14:01.509Z,82.18
2023-04-14T07:16:28.121Z,80.67
2023-04-14T07:18:54.692Z,80.32
2023-04-14T07:21:21.136Z,79.28
2023-04-14T07:23:47.892Z,78.49
2023-04-14T07:26:14.421Z,77.71
2023-04-14T07:28:40.794Z,77.50
2023-04-14T07:31:10.641Z,76.65
2023-04-14T07:33:37.236Z,75.38
2023-04-14T07:36:07.951Z,74.83
2023-04-14T07:38:34.396Z,74.48
2023-04-14T07:41:04.466Z,73.22
2023-04-14T07:43:35.820Z,72.52
2023-04-14T07:46:04.925Z,71.52
2023-04-14T07:48:32.333Z,69.71
2023-04-14T07:50:58.756Z,70.25
2023-04-14T07:53:25.236Z,69.19
2023-04-14T07:55:51.731Z,67.84
2023-04-14T07:58:18.064Z,66.97
2023-04-14T08:00:44.846Z,66.68
2023-04-14T08:03:11.494Z,66.07
2023-04-14T08:05:38.146Z,65.21
2023-04-14T08:08:05.031Z,64.43
2023-04-14T08:10:31.485Z,64.91
2023-04-14T08:12:57.826Z,64.24
2023-04-14T08:15:24.314Z,63.34
2023-04-14T08:17:50.924Z,63.24
2023-04-14T08:20:17.567Z,62.04
2023-04-14T08:22:44.055Z,61.30
2023-04-14T08:25:12.146Z,60.71
2023-04-14T08:27:39.150Z,59.61
2023-04-14T08:30:06.963Z,60.52
2023-04-14T08:32:34.024Z,59.27
2023-04-14T08:35:38.111Z,59.46
2023-04-14T08:37:46.874Z,60.48
2023-04-14T08:40:16.191Z,57.19
2023-04-14T08:42:42.568Z,57.56
2023-04-14T08:45:09.193Z,57.55
2023-04-14T08:47:37.474Z,55.98
2023-04-14T08:50:13.395Z,56.08
2023-04-14T08:52:41.654Z,55.78
2023-04-14T08:55:11.088Z,56.27
2023-04-14T08:57:38.698Z,54.18
2023-04-14T09:00:06.256Z,52.91
2023-04-14T09:02:33.701Z,53.88
2023-04-14T09:05:01.195Z,53.64
2023-04-14T09:07:29.939Z,51.43
2023-04-14T09:09:57.877Z,50.94
2023-04-14T09:12:27.400Z,50.19
2023-04-14T09:14:57.050Z,50.60
2023-04-14T09:17:26.657Z,49.54
2023-04-14T09:20:38.274Z,47.55
2023-04-14T09:22:39.496Z,48.67
2023-04-14T09:25:08.279Z,47.21
2023-04-14T09:27:35.357Z,46.83
2023-04-14T09:30:03.143Z,46.75
2023-04-14T09:32:29.839Z,47.42
2023-04-14T09:34:58.481Z,46.54
2023-04-14T09:37:25.642Z,46.85
2023-04-14T09:39:53.800Z,47.00
2023-04-14T09:42:21.136Z,45.29
2023-04-14T09:44:58.849Z,44.90
2023-04-14T09:47:26.274Z,46.76
2023-04-14T09:49:58.023Z,47.24
2023-04-14T09:52:40.318Z,49.67
2023-04-14T09:55:11.697Z,50.89
2023-04-14T09:57:41.727Z,51.73
2023-04-14T10:00:31.560Z,50.79
2023-04-14T10:02:59.176Z,50.22
2023-04-14T10:05:32.045Z,48.43
2023-04-14T10:08:04.555Z,49.08
2023-04-14T10:10:31.208Z,48.86
2023-04-14T10:13:00.014Z,48.22
2023-04-14T10:15:27.242Z,48.72
2023-04-14T10:17:53.686Z,48.80
2023-04-14T10:20:20.357Z,48.13
2023-04-14T10:22:48.073Z,47.68
2023-04-14T10:25:15.156Z,47.27
2023-04-14T10:27:41.888Z,46.77
2023-04-14T10:30:08.911Z,46.64
2023-04-14T10:32:37.791Z,47.77
2023-04-14T10:35:10.619Z,48.35
2023-04-14T10:37:37.324Z,46.64
2023-04-14T10:40:07.157Z,47.04
2023-04-14T10:42:57.242Z,47.74
2023-04-14T10:45:23.884Z,46.38
2023-04-14T10:47:51.120Z,45.78
2023-04-14T10:50:22.261Z,48.24
2023-04-14T10:52:52.001Z,48.91
2023-04-14T10:55:25.223Z,47.02
2023-04-14T10:57:54.432Z,48.68
2023-04-14T11:00:23.555Z,47.21
2023-04-14T11:03:10.908Z,48.77
2023-04-14T11:05:45.440Z,48.52
2023-04-14T11:08:13.167Z,48.36
2023-04-14T11:10:40.037Z,48.79
2023-04-14T11:13:11.104Z,49.17
2023-04-14T11:15:51.848Z,47.97
2023-04-14T11:18:37.247Z,47.51
2023-04-14T11:21:04.896Z,47.31
2023-04-14T11:23:31.717Z,47.82
2023-04-14T11:25:58.624Z,49.39
2023-04-14T11:28:29.606Z,48.05
2023-04-14T11:31:00.463Z,47.31
2023-04-14T11:33:29.427Z,45.48
2023-04-14T11:35:56.883Z,44.32
2023-04-14T11:38:24.253Z,44.07
2023-04-14T11:40:51.785Z,44.37
2023-04-14T11:43:19.780Z,44.95
2023-04-14T11:45:50.679Z,45.24
2023-04-14T11:48:18.810Z,46.40
2023-04-14T11:50:47.632Z,46.18
2023-04-14T11:53:16.389Z,44.77
2023-04-14T11:55:48.080Z,44.81
2023-04-14T11:58:20.049Z,45.21
2023-04-14T12:00:48.842Z,45.63
2023-04-14T12:03:16.037Z,47.40
2023-04-14T12:05:42.762Z,46.57
2023-04-14T12:08:12.203Z,46.20
2023-04-14T12:10:45.542Z,45.12
2023-04-14T12:13:12.201Z,46.54
2023-04-14T12:15:42.520Z,46.15
2023-04-14T12:18:14.755Z,46.70
2023-04-14T12:21:05.949Z,47.37
2023-04-14T12:23:41.279Z,47.17
2023-04-14T12:26:11.988Z,44.79
2023-04-14T12:28:42.052Z,45.61
2023-04-14T12:31:09.703Z,45.42
2023-04-14T12:33:36.382Z,45.92
2023-04-14T12:36:12.846Z,43.35
2023-04-14T12:38:39.677Z,43.42
2023-04-14T12:41:06.157Z,42.89
2023-04-14T12:43:35.483Z,43.61
2023-04-14T12:46:06.180Z,44.08
2023-04-14T12:48:48.207Z,44.18
2023-04-14T12:51:16.723Z,44.75
2023-04-14T12:53:45.087Z,44.18
2023-04-14T12:56:17.446Z,43.96
2023-04-14T12:58:48.349Z,44.06
2023-04-14T13:01:17.082Z,41.97
2023-04-14T13:03:51.778Z,40.70
2023-04-14T13:06:21.089Z,41.81
2023-04-14T13:08:52.675Z,42.76
2023-04-14T13:11:20.724Z,42.38
2023-04-14T13:13:47.839Z,40.59
2023-04-14T13:16:17.688Z,42.00
2023-04-14T13:18:46.641Z,41.89
2023-04-14T13:21:13.388Z,42.37
2023-04-14T13:23:40.720Z,42.17
2023-04-14T13:26:07.291Z,42.99
2023-04-14T13:28:33.692Z,42.62
2023-04-14T13:31:00.967Z,42.06
2023-04-14T13:33:27.567Z,42.26
2023-04-14T13:35:55.442Z,41.79
2023-04-14T13:38:21.972Z,41.27
2023-04-14T13:40:48.547Z,41.46
2023-04-14T13:43:18.075Z,41.72
2023-04-14T13:45:45.009Z,41.37
2023-04-14T13:48:11.489Z,41.69
2023-04-14T13:50:37.923Z,40.86
2023-04-14T13:53:04.377Z,41.24
2023-04-14T13:55:30.765Z,41.51
2023-04-14T13:57:57.250Z,42.14
2023-04-14T14:00:23.854Z,39.53
2023-04-14T14:02:51.760Z,39.83
2023-04-14T14:05:18.533Z,39.34
2023-04-14T14:07:44.949Z,39.90
2023-04-14T14:10:11.823Z,39.46
2023-04-14T14:12:38.271Z,39.46
2023-04-14T14:15:05.792Z,39.92
2023-04-14T14:17:32.257Z,41.56
2023-04-14T14:19:59.053Z,41.05
2023-04-14T14:22:25.860Z,39.58
2023-04-14T14:24:58.577Z,41.30
2023-04-14T14:27:31.688Z,39.28
2023-04-14T14:29:58.174Z,39.92
2023-04-14T14:32:24.721Z,39.95
2023-04-14T14:34:51.163Z,40.62
2023-04-14T14:37:18.748Z,41.73
2023-04-14T14:39:45.184Z,38.41
2023-04-14T14:42:11.939Z,38.64
2023-04-14T14:44:38.561Z,39.56
2023-04-14T14:47:05.998Z,40.36
2023-04-14T14:49:32.752Z,40.01
2023-04-14T14:51:59.276Z,39.22
2023-04-14T14:54:25.913Z,38.29
2023-04-14T14:56:52.321Z,37.66
2023-04-14T14:59:18.688Z,37.94
2023-04-14T15:01:46.598Z,37.88
2023-04-14T15:04:13.564Z,38.34
2023-04-14T15:06:40.386Z,39.01
2023-04-14T15:09:06.762Z,39.09
2023-04-14T15:11:33.221Z,40.51
2023-04-14T15:13:59.833Z,39.30
2023-04-14T15:16:26.949Z,38.68
2023-04-14T15:18:53.578Z,37.73
2023-04-14T15:21:19.951Z,37.51
2023-04-14T15:23:46.594Z,39.05
2023-04-14T15:26:14.070Z,40.25
2023-04-14T15:28:41.104Z,41.25
2023-04-14T15:31:09.000Z,41.31
2023-04-14T15:33:36.043Z,40.42
2023-04-14T15:36:02.620Z,40.33
2023-04-14T15:38:29.141Z,41.70
2023-04-14T15:40:55.931Z,41.84
2023-04-14T15:43:23.610Z,42.45
2023-04-14T15:45:50.030Z,43.15
2023-04-14T15:48:16.474Z,43.79
2023-04-14T15:50:44.834Z,44.43
2023-04-14T15:53:12.161Z,44.13
2023-04-14T15:55:39.621Z,44.10
2023-04-14T15:58:06.504Z,43.35
2023-04-14T16:00:33.344Z,43.66
2023-04-14T16:03:01.891Z,43.38
2023-04-14T16:05:28.693Z,43.80
2023-04-14T16:07:55.436Z,43.92
2023-04-14T16:10:22.646Z,44.29
2023-04-14T16:12:50.466Z,43.99
2023-04-14T16:15:17.248Z,43.93
2023-04-14T16:17:43.910Z,43.42
2023-04-14T16:20:12.209Z,43.02
2023-04-14T16:22:38.592Z,43.29
2023-04-14T16:25:05.739Z,43.81
2023-04-14T16:27:32.878Z,44.13
2023-04-14T16:29:59.347Z,44.07
2023-04-14T16:32:26.845Z,43.74
2023-04-14T16:34:53.272Z,43.32
2023-04-14T16:37:20.738Z,43.88
2023-04-14T16:39:47.586Z,44.38
2023-04-14T16:42:18.775Z,43.55
2023-04-14T16:44:45.322Z,42.67
2023-04-14T16:47:11.703Z,41.33
2023-04-14T16:49:38.106Z,42.05
2023-04-14T16:52:04.553Z,42.38
2023-04-14T16:54:31.683Z,42.26
2023-04-14T16:56:58.150Z,42.49
2023-04-14T16:59:24.621Z,42.60
2023-04-14T17:01:51.489Z,44.02
2023-04-14T17:04:18.584Z,43.76
2023-04-14T17:06:46.556Z,43.47
2023-04-14T17:09:13.411Z,42.91
2023-04-14T17:11:39.801Z,43.52
2023-04-14T17:14:09.023Z,42.49
2023-04-14T17:16:35.600Z,42.33
2023-04-14T17:19:02.730Z,43.06
2023-04-14T17:21:29.317Z,43.19
2023-04-14T17:23:55.771Z,43.63
2023-04-14T17:26:25.456Z,43.83
2023-04-14T17:28:51.827Z,43.59
2023-04-14T17:31:18.445Z,43.87
2023-04-14T17:33:46.429Z,44.58
2023-04-14T17:36:15.223Z,45.75
2023-04-14T17:38:42.756Z,46.46
2023-04-14T17:41:10.983Z,46.60
2023-04-14T17:43:39.446Z,47.23
2023-04-14T17:46:06.401Z,47.66
2023-04-14T17:48:33.464Z,47.36
2023-04-14T17:51:03.663Z,47.20
2023-04-14T17:53:30.891Z,47.29
2023-04-14T17:55:57.889Z,48.32
2023-04-14T17:58:25.447Z,48.61
2023-04-14T18:00:52.182Z,48.37
2023-04-14T18:03:18.680Z,47.82
2023-04-14T18:05:45.388Z,47.52
2023-04-14T18:08:12.063Z,47.72
2023-04-14T18:10:39.188Z,46.55
2023-04-14T18:13:05.679Z,45.50
2023-04-14T18:15:32.251Z,44.93
2023-04-14T18:17:58.740Z,45.43
2023-04-14T18:20:26.291Z,46.67
2023-04-14T18:23:01.784Z,47.96
2023-04-14T18:26:26.468Z,48.47
2023-04-14T18:28:17.636Z,49.42
2023-04-14T18:30:44.023Z,50.22
2023-04-14T18:33:10.460Z,50.58
2023-04-14T18:35:36.832Z,51.56
2023-04-14T18:38:03.176Z,51.70
2023-04-14T18:40:29.578Z,51.81
2023-04-14T18:42:57.311Z,52.07
2023-04-14T18:45:23.752Z,51.02
2023-04-14T18:47:50.783Z,52.42
2023-04-14T18:50:18.197Z,52.49
2023-04-14T18:52:44.763Z,52.50
2023-04-14T18:55:11.134Z,52.96
2023-04-14T18:57:38.158Z,53.72
2023-04-14T19:00:07.020Z,53.34
2023-04-14T19:02:34.457Z,52.39
2023-04-14T19:05:02.360Z,53.23
2023-04-14T19:07:28.948Z,52.81
2023-04-14T19:09:55.407Z,53.24
2023-04-14T19:12:28.609Z,53.03
2023-04-14T19:14:55.494Z,53.49
2023-04-14T19:17:22.606Z,52.62
2023-04-14T19:19:49.180Z,52.19
2023-04-14T19:22:16.736Z,52.25
2023-04-14T19:24:43.239Z,51.82
2023-04-14T19:27:10.328Z,51.86
2023-04-14T19:29:36.757Z,51.29
2023-04-14T19:32:04.544Z,52.46
2023-04-14T19:34:31.461Z,52.29
2023-04-14T19:36:58.192Z,52.31
2023-04-14T19:39:24.553Z,53.01
2023-04-14T19:41:51.272Z,53.26
2023-04-14T19:44:17.691Z,53.33
2023-04-14T19:46:44.201Z,53.33
2023-04-14T19:49:11.372Z,53.55
2023-04-14T19:51:37.921Z,53.58
2023-04-14T19:54:05.503Z,54.47
2023-04-14T19:56:32.843Z,54.84
2023-04-14T19:59:00.026Z,55.03
2023-04-14T20:01:27.016Z,55.47
2023-04-14T20:04:09.755Z,55.35
2023-04-14T20:06:39.455Z,55.47
2023-04-14T20:09:06.472Z,55.47
2023-04-14T20:11:32.933Z,55.28
2023-04-14T20:13:59.357Z,55.64
2023-04-14T20:16:26.454Z,56.01
2023-04-14T20:18:52.978Z,56.92
2023-04-14T20:21:19.444Z,57.02
2023-04-14T20:23:46.316Z,57.67
2023-04-14T20:26:13.438Z,57.93
2023-04-14T20:28:40.367Z,58.38
2023-04-14T20:31:08.718Z,59.10
2023-04-14T20:33:35.951Z,59.51
2023-04-14T20:36:02.398Z,59.94
2023-04-14T20:38:29.168Z,59.94
2023-04-14T20:40:55.648Z,59.82
2023-04-14T20:43:22.588Z,60.15
2023-04-14T20:45:49.997Z,60.71
2023-04-14T20:48:16.748Z,60.19
2023-04-14T20:50:44.439Z,61.03
2023-04-14T20:53:10.999Z,61.17
2023-04-14T20:55:37.540Z,61.75
2023-04-14T20:58:04.078Z,61.98
2023-04-14T21:00:32.512Z,61.78
2023-04-14T21:03:00.948Z,61.77
2023-04-14T21:05:27.495Z,61.69
2023-04-14T21:07:53.825Z,62.03
2023-04-14T21:10:20.693Z,62.22
2023-04-14T21:15:26.455Z,62.26
2023-04-14T21:15:53.251Z,61.83
2023-04-14T21:18:21.652Z,62.20
2023-04-14T21:20:48.141Z,62.32
2023-04-14T21:23:14.577Z,62.65
2023-04-14T21:25:41.038Z,62.74
2023-04-14T21:28:08.016Z,62.79
2023-04-14T21:30:34.497Z,62.77
2023-04-14T21:33:00.920Z,63.09
2023-04-14T21:35:27.444Z,62.83
2023-04-14T21:37:53.822Z,63.30
2023-04-14T21:40:20.315Z,63.21
2023-04-14T21:42:46.729Z,63.86
2023-04-14T21:45:13.989Z,64.03
2023-04-14T21:47:40.671Z,63.88
2023-04-14T21:50:07.818Z,63.97
2023-04-14T21:52:34.260Z,63.71
2023-04-14T21:55:01.083Z,64.06
2023-04-14T21:57:43.912Z,64.44
2023-04-14T22:00:17.317Z,64.59
2023-04-14T22:02:45.118Z,64.67
2023-04-14T22:05:11.792Z,64.95
2023-04-14T22:07:38.679Z,64.83
2023-04-14T22:10:05.490Z,65.24
2023-04-14T22:12:32.543Z,65.49
2023-04-14T22:15:00.882Z,65.66
2023-04-14T22:17:27.332Z,65.76
2023-04-14T22:19:53.777Z,65.94
2023-04-14T22:22:20.122Z,66.13
2023-04-14T22:24:46.643Z,66.32
2023-04-14T22:27:13.017Z,66.93
2023-04-14T22:29:39.388Z,67.07
2023-04-14T22:32:06.206Z,67.39
2023-04-14T22:34:32.615Z,67.60
2023-04-14T22:36:59.580Z,67.34
2023-04-14T22:39:26.973Z,67.28
2023-04-14T22:41:53.334Z,67.52
2023-04-14T22:44:19.692Z,67.06
2023-04-14T22:46:46.534Z,67.35
2023-04-14T22:49:13.038Z,67.50
2023-04-14T22:51:39.480Z,67.80
2023-04-14T22:54:06.533Z,68.18
2023-04-14T22:56:32.954Z,67.94
2023-04-14T22:58:59.616Z,67.94
2023-04-14T23:01:26.497Z,67.88
2023-04-14T23:03:53.164Z,68.01
2023-04-14T23:06:20.485Z,67.63
2023-04-14T23:08:50.961Z,66.83
2023-04-14T23:11:20.674Z,66.61
2023-04-14T23:13:48.105Z,66.68
2023-04-14T23:16:16.662Z,66.81
2023-04-14T23:18:43.380Z,66.63
2023-04-14T23:21:09.978Z,66.54
2023-04-14T23:23:36.733Z,66.72
2023-04-14T23:26:03.119Z,66.21
2023-04-14T23:28:29.466Z,66.32
2023-04-14T23:30:55.878Z,65.95
2023-04-14T23:33:22.595Z,66.45
2023-04-14T23:35:48.976Z,66.91
2023-04-14T23:38:15.330Z,66.41
2023-04-14T23:40:41.735Z,66.16
2023-04-14T23:43:08.314Z,66.51
2023-04-14T23:45:37.676Z,66.48
2023-04-14T23:48:05.794Z,66.83
2023-04-14T23:51:01.670Z,66.67
2023-04-14T23:53:20.061Z,66.98
2023-04-14T23:55:47.617Z,66.90
2023-04-14T23:58:26.012Z,66.93
